Time;durP1;ratioP1;P1;durP2;ratioP2;P2;SDS_P1;SDS_P2;PMS_P1;PMS_P2;Temp;Humidity;BMP_temperature;BMP_pressure;BME280_temperature;BME280_humidity;BME280_pressure;Samples;Min_cycle;Max_cycle;Signal;HPM_P1;HPM_P2
2022/08/20 00:01:36;;;;;;;9.17;3.43;;;;;;;18.89;92.22;98633.88;5114968;27;20079;-65
2022/08/20 00:04:23;;;;;;;11.00;3.53;;;;;;;18.31;92.76;98543.91;5131711;27;20323;-67
2022/08/20 00:08:09;;;;;;;10.17;3.13;;;;;;;18.77;93.25;98618.97;5130580;27;20265;-64
2022/08/20 00:11:42;;;;;;;7.03;3.27;;;;;;;18.99;94.40;98627.91;5129798;27;20331;-67
2022/08/20 00:15:23;;;;;;;7.77;2.80;;;;;;;19.43;94.53;98636.84;5117544;27;20340;-66
2022/08/20 00:18:18;;;;;;;7.40;3.20;;;;;;;19.30;94.04;98615.78;5132795;27;20465;-66
2022/08/20 00:21:34;;;;;;;4.83;2.90;;;;;;;19.55;93.83;98630.56;5130040;27;20303;-64
2022/08/20 00:24:15;;;;;;;7.90;3.40;;;;;;;19.43;93.28;98620.94;5077588;28;20342;-64
2022/08/20 00:27:37;;;;;;;11.10;3.53;;;;;;;19.28;93.06;98607.94;5081809;27;20312;-67
2022/08/20 00:30:30;;;;;;;11.40;3.57;;;;;;;19.15;93.40;98613.34;5132900;27;20294;-67
2022/08/20 00:33:19;;;;;;;5.87;3.07;;;;;;;19.08;94.20;98627.19;5096205;27;20313;-65
2022/08/20 00:36:44;;;;;;;6.40;3.23;;;;;;;19.05;94.39;98606.25;5130101;27;20356;-69
2022/08/20 00:39:41;;;;;;;11.70;3.37;;;;;;;19.29;94.92;98608.78;5130180;27;20297;-66
2022/08/20 00:42:52;;;;;;;7.53;2.43;;;;;;;19.55;95.59;98604.91;5132467;27;20301;-69
2022/08/20 00:45:46;;;;;;;4.95;2.35;;;;;;;19.65;95.39;98602.38;5102318;27;20288;-69
2022/08/20 00:48:53;;;;;;;6.57;2.93;;;;;;;19.62;94.50;98589.38;5130376;27;20031;-68
2022/08/20 00:52:04;;;;;;;4.97;2.40;;;;;;;19.54;94.38;98554.69;5130553;27;20323;-69
2022/08/20 00:55:07;;;;;;;8.13;2.40;;;;;;;19.61;94.26;98561.19;5129356;27;20293;-67
2022/08/20 00:58:04;;;;;;;4.30;2.07;;;;;;;19.57;94.00;98565.06;5131915;27;20288;-70
2022/08/20 01:01:22;;;;;;;6.13;2.33;;;;;;;19.68;94.43;98577.47;5132282;27;20348;-68
2022/08/20 01:04:44;;;;;;;3.43;1.70;;;;;;;19.73;94.80;98576.13;5126774;27;20290;-67
2022/08/20 01:08:03;;;;;;;6.47;2.10;;;;;;;19.77;94.98;98566.97;5128770;27;20323;-65
2022/08/20 01:11:33;;;;;;;5.27;2.00;;;;;;;19.62;94.22;98552.28;5126686;27;20280;-68
2022/08/20 01:14:35;;;;;;;2.50;1.67;;;;;;;19.70;94.36;98549.03;5114815;27;20297;-68
2022/08/20 01:17:57;;;;;;;5.43;2.20;;;;;;;19.66;94.47;98553.69;5131887;27;20291;-70
2022/08/20 01:21:10;;;;;;;4.10;1.60;;;;;;;19.53;94.66;98531.81;5130766;27;20308;-68
2022/08/20 01:24:24;;;;;;;2.20;1.53;;;;;;;19.52;94.92;98535.41;5082219;27;20311;-68
2022/08/20 01:27:05;;;;;;;4.27;1.90;;;;;;;19.47;95.15;98527.00;5131762;28;20289;-65
2022/08/20 01:30:02;;;;;;;4.33;1.47;;;;;;;19.35;95.63;98524.41;5132177;28;20394;-68
2022/08/20 01:33:45;;;;;;;4.13;1.70;;;;;;;18.89;96.40;98453.94;5128527;27;20449;-64
2022/08/20 01:36:57;;;;;;;5.43;1.60;;;;;;;19.19;96.93;98508.03;5129965;28;20284;-64
2022/08/20 01:40:10;;;;;;;4.90;1.87;;;;;;;19.15;97.17;98512.75;5128511;28;20365;-66
2022/08/20 01:43:28;;;;;;;4.23;1.97;;;;;;;18.93;97.39;98468.59;5132598;28;20340;-62
2022/08/20 01:50:58;;;;;;;4.50;1.80;;;;;;;19.49;98.32;98488.84;5124407;28;20438;-68
2022/08/20 01:54:12;;;;;;;3.60;1.47;;;;;;;19.88;98.14;98488.38;4968015;28;20338;-64
2022/08/20 01:57:25;;;;;;;3.97;1.80;;;;;;;19.95;97.83;98452.44;4977827;28;20682;-67
2022/08/20 02:00:48;;;;;;;4.90;1.03;;;;;;;20.00;94.79;98482.06;5007986;28;20436;-72
2022/08/20 02:03:45;;;;;;;3.43;1.20;;;;;;;19.89;94.57;98468.84;4931871;29;20296;-65
2022/08/20 02:10:22;;;;;;;3.00;1.20;;;;;;;20.18;95.91;98464.59;4919392;29;20319;-66
2022/08/20 02:13:24;;;;;;;2.90;1.10;;;;;;;20.10;95.14;98476.84;4839590;29;20308;-69
2022/08/20 02:16:14;;;;;;;3.03;1.43;;;;;;;19.94;94.99;98450.75;4929130;29;20287;-63
2022/08/20 02:19:11;;;;;;;2.30;1.50;;;;;;;19.73;95.49;98440.97;4932009;29;20280;-64
2022/08/20 02:21:52;;;;;;;3.07;1.30;;;;;;;19.69;95.55;98447.50;4915279;29;20343;-63
2022/08/20 02:24:31;;;;;;;4.03;1.37;;;;;;;19.64;95.75;98436.41;4930887;29;20355;-66
2022/08/20 02:27:50;;;;;;;3.17;1.60;;;;;;;19.78;95.95;98430.00;4931148;29;20717;-64
2022/08/20 02:30:51;;;;;;;3.10;1.60;;;;;;;19.92;96.21;98437.63;4930321;29;20296;-63
2022/08/20 02:33:52;;;;;;;4.17;1.60;;;;;;;20.18;95.68;98440.72;4930865;29;20288;-64
2022/08/20 02:37:17;;;;;;;3.37;1.30;;;;;;;20.42;95.41;98434.31;4933782;29;20328;-66
2022/08/20 02:40:44;;;;;;;1.90;1.10;;;;;;;20.61;94.61;98425.63;4897962;29;20357;-65
2022/08/20 02:43:25;;;;;;;2.30;1.33;;;;;;;20.73;94.41;98421.88;4896544;29;20289;-66
2022/08/20 02:46:03;;;;;;;2.60;1.40;;;;;;;20.80;93.46;98408.94;4897820;29;20900;-66
2022/08/20 02:48:42;;;;;;;6.10;3.97;;;;;;;21.02;92.28;98403.41;4881572;29;20537;-64
2022/08/20 02:51:48;;;;;;;6.17;2.00;;;;;;;21.13;92.17;98385.66;4893798;29;20391;-66
2022/08/20 02:54:35;;;;;;;2.63;2.20;;;;;;;21.17;91.69;98392.34;4884222;29;20316;-66
2022/08/20 02:57:21;;;;;;;3.97;1.50;;;;;;;21.09;89.95;98385.94;4915168;29;20368;-66
2022/08/20 03:02:40;;;;;;;4.23;1.37;;;;;;;21.18;89.71;98383.44;4899204;29;20280;-66
2022/08/20 03:05:21;;;;;;;3.97;1.37;;;;;;;21.16;89.82;98375.59;4914599;29;20284;-68
2022/08/20 03:08:02;;;;;;;4.37;1.47;;;;;;;21.18;89.69;98378.94;4901553;29;20343;-64
2022/08/20 03:10:53;;;;;;;3.40;1.67;;;;;;;20.99;89.60;98326.69;4951980;29;20329;-63
2022/08/20 03:14:10;;;;;;;3.20;1.50;;;;;;;21.29;89.15;98364.69;4927489;29;20279;-67
2022/08/20 03:17:15;;;;;;;7.50;1.60;;;;;;;21.50;90.05;98362.78;4974383;28;20348;-64
2022/08/20 03:20:04;;;;;;;4.27;2.20;;;;;;;21.51;90.13;98321.91;5010160;28;20312;-64
2022/08/20 03:22:48;;;;;;;7.25;2.00;;;;;;;21.83;90.23;98350.00;5096775;27;20339;-62
2022/08/20 03:25:32;;;;;;;4.30;1.67;;;;;;;21.91;89.25;98350.09;5132740;27;20043;-64
2022/08/20 03:28:33;;;;;;;3.00;1.80;;;;;;;21.89;88.09;98345.91;5133580;27;20316;-64
2022/08/20 03:31:25;;;;;;;4.63;1.80;;;;;;;21.81;87.83;98297.94;5131303;27;20288;-66
2022/08/20 03:34:01;;;;;;;4.53;1.60;;;;;;;22.00;87.86;98343.09;5130365;27;20346;-66
2022/08/20 03:36:42;;;;;;;6.43;2.17;;;;;;;21.95;87.41;98330.22;5134214;27;20321;-69
2022/08/20 03:39:22;;;;;;;3.47;1.83;;;;;;;21.84;86.02;98325.09;5132846;27;20286;-63
2022/08/20 03:42:17;;;;;;;3.87;1.97;;;;;;;21.76;87.12;98322.31;5118200;27;20281;-64
2022/08/20 03:44:52;;;;;;;4.10;1.90;;;;;;;21.41;87.72;98314.94;5133360;27;20301;-68
2022/08/20 03:47:49;;;;;;;3.37;1.80;;;;;;;20.94;88.36;98281.09;5133105;27;20055;-67
2022/08/20 03:50:35;;;;;;;3.03;2.00;;;;;;;20.83;89.46;98310.44;5093690;27;20107;-67
2022/08/20 03:53:11;;;;;;;1.87;1.00;;;;;;;20.85;90.71;98308.50;5131945;27;20288;-65
2022/08/20 03:55:54;;;;;;;3.03;1.20;;;;;;;21.00;91.81;98306.28;5131963;27;20313;-70
2022/08/20 03:58:39;;;;;;;2.57;1.30;;;;;;;21.04;91.78;98303.22;5133864;27;20375;-64
2022/08/20 04:01:29;;;;;;;1.40;0.70;;;;;;;21.12;90.99;98313.13;5134083;27;20328;-64
2022/08/20 04:04:33;;;;;;;1.60;0.60;;;;;;;21.37;90.36;98314.38;5131693;27;20296;-65
2022/08/20 04:07:19;;;;;;;0.63;0.60;;;;;;;21.52;89.83;98317.47;5131295;27;20273;-64
2022/08/20 04:09:58;;;;;;;0.80;0.60;;;;;;;21.69;89.19;98318.53;5132963;27;20320;-65
2022/08/20 04:12:40;;;;;;;4.63;0.80;;;;;;;21.70;87.93;98301.63;5130094;27;20281;-68
2022/08/20 04:15:35;;;;;;;1.23;0.60;;;;;;;21.65;87.70;98290.59;5102633;27;20303;-64
2022/08/20 04:18:26;;;;;;;1.27;0.70;;;;;;;21.79;86.27;98300.78;5132174;27;20047;-62
2022/08/20 04:21:13;;;;;;;6.43;0.50;;;;;;;21.94;84.62;98296.66;5087242;27;20066;-66
2022/08/20 04:24:05;;;;;;;0.80;0.60;;;;;;;21.88;84.27;98307.84;5132195;27;20286;-65
2022/08/20 04:27:06;;;;;;;2.60;0.53;;;;;;;21.87;85.42;98300.88;5130461;27;20275;-64
2022/08/20 04:30:06;;;;;;;2.63;0.60;;;;;;;21.85;83.92;98318.78;5132496;27;20091;-66
2022/08/20 04:32:43;;;;;;;1.60;0.57;;;;;;;21.65;83.96;98306.53;5130286;27;20071;-63
2022/08/20 04:35:50;;;;;;;0.77;0.60;;;;;;;21.33;84.54;98294.38;5131813;27;20290;-67
2022/08/20 04:38:37;;;;;;;1.73;0.67;;;;;;;21.27;85.61;98298.44;5082349;27;20281;-68
2022/08/20 04:41:28;;;;;;;1.10;0.60;;;;;;;21.14;86.30;98291.72;5132640;27;20070;-67
2022/08/20 04:44:05;;;;;;;3.10;0.80;;;;;;;21.03;87.26;98285.56;5086338;27;20194;-66
2022/08/20 04:46:47;;;;;;;0.70;0.70;;;;;;;21.04;88.10;98286.41;5130795;27;20474;-67
2022/08/20 04:49:30;;;;;;;1.73;1.10;;;;;;;21.09;88.50;98295.66;5132793;27;20293;-61
2022/08/20 04:52:31;;;;;;;3.03;1.07;;;;;;;21.13;88.21;98295.38;5130472;27;20308;-64
2022/08/20 04:55:13;;;;;;;2.30;0.93;;;;;;;21.05;89.06;98294.25;5112657;27;20301;-65
2022/08/20 04:58:07;;;;;;;2.17;1.30;;;;;;;21.13;89.81;98290.06;5107383;27;20493;-61
2022/08/20 05:04:02;;;;;;;1.50;1.00;;;;;;;21.11;88.90;98285.72;5133055;27;20059;-62
2022/08/20 05:06:40;;;;;;;2.13;1.10;;;;;;;21.10;89.82;98297.31;5099464;27;20353;-68
2022/08/20 05:09:39;;;;;;;2.90;1.50;;;;;;;20.99;89.04;98294.81;5129728;27;20293;-66
2022/08/20 05:12:43;;;;;;;2.43;1.60;;;;;;;20.81;89.32;98281.38;5077237;27;20304;-68
2022/08/20 05:16:22;;;;;;;1.93;1.30;;;;;;;20.66;89.59;98288.88;5130998;27;20301;-65
2022/08/20 05:19:59;;;;;;;4.03;1.40;;;;;;;20.45;90.14;98280.19;5035956;28;20269;-67
2022/08/20 05:23:45;;;;;;;2.27;1.40;;;;;;;20.41;90.05;98276.94;5037819;28;20978;-63
2022/08/20 05:27:25;;;;;;;3.20;1.40;;;;;;;20.26;90.67;98284.44;4986446;28;20287;-66
2022/08/20 05:30:32;;;;;;;2.73;1.30;;;;;;;20.18;91.28;98273.66;5001869;28;20345;-67
2022/08/20 05:33:42;;;;;;;4.30;1.23;;;;;;;20.11;91.39;98284.94;5006996;28;20292;-65
2022/08/20 05:43:49;;;;;;;1.20;1.00;;;;;;;19.80;92.20;98280.50;4994888;28;20443;-70
2022/08/20 05:47:21;;;;;;;2.47;1.10;;;;;;;19.77;92.81;98280.75;4989899;28;20285;-65
2022/08/20 05:50:43;;;;;;;4.17;1.20;;;;;;;19.71;93.60;98281.28;4989341;28;20338;-63
2022/08/20 05:53:56;;;;;;;3.22;1.80;;;;;;;19.65;93.41;98273.84;4946885;28;20286;-66
2022/08/20 05:57:25;;;;;;;3.73;1.37;;;;;;;19.65;93.49;98273.84;5028019;28;20058;-66
2022/08/20 06:01:05;;;;;;;3.57;1.60;;;;;;;19.66;94.09;98266.72;5016327;28;20300;-65
2022/08/20 06:04:33;;;;;;;3.10;1.50;;;;;;;19.75;94.56;98272.09;5019162;28;20637;-67
2022/08/20 06:08:16;;;;;;;2.60;1.20;;;;;;;19.70;94.77;98269.00;5047438;28;21159;-65
2022/08/20 06:12:01;;;;;;;1.77;1.10;;;;;;;19.61;95.40;98269.75;5071259;28;20363;-71
2022/08/20 06:22:42;;;;;;;3.03;1.60;;;;;;;19.25;96.83;98271.91;4989224;28;20468;-62
2022/08/20 06:25:28;;;;;;;2.33;1.60;;;;;;;19.15;97.42;98248.00;5024146;28;20292;-64
2022/08/20 06:28:59;;;;;;;5.10;1.57;;;;;;;19.19;97.48;98267.09;5000908;28;20350;-66
2022/08/20 06:31:42;;;;;;;2.90;1.53;;;;;;;19.17;97.89;98267.25;5008400;28;20348;-62
2022/08/20 06:34:39;;;;;;;2.72;1.70;;;;;;;19.09;98.41;98247.66;4982326;28;20289;-68
2022/08/20 06:37:30;;;;;;;4.72;2.50;;;;;;;19.25;98.67;98274.56;5032368;28;20057;-65
2022/08/20 06:40:26;;;;;;;6.07;2.30;;;;;;;18.90;98.28;98233.34;5031012;28;20077;-65
2022/08/20 06:43:09;;;;;;;3.00;1.90;;;;;;;19.20;98.47;98279.41;5031294;28;20339;-64
2022/08/20 06:45:49;;;;;;;6.70;2.95;;;;;;;19.17;98.88;98282.31;5031726;28;20368;-66
2022/08/20 06:52:22;;;;;;;6.83;2.20;;;;;;;19.12;99.17;98295.06;5120081;27;20742;-65
2022/08/20 06:56:17;;;;;;;5.97;2.47;;;;;;;19.08;99.49;98277.78;5102033;27;20321;-64
2022/08/20 06:59:00;;;;;;;5.60;2.00;;;;;;;19.01;100.00;98266.00;5134777;27;20327;-66
2022/08/20 07:07:37;;;;;;;7.77;2.20;;;;;;;19.05;100.00;98264.81;5131643;27;20073;-67
2022/08/20 07:13:24;;;;;;;6.50;2.33;;;;;;;19.11;100.00;98261.63;5132770;27;20454;-68
2022/08/20 07:16:12;;;;;;;6.93;2.80;;;;;;;19.10;100.00;98273.19;5100411;27;20308;-67
2022/08/20 07:21:46;;;;;;;9.50;3.60;;;;;;;19.05;100.00;98281.50;5131756;27;20292;-65
2022/08/20 07:24:45;;;;;;;8.03;4.33;;;;;;;19.02;100.00;98267.66;5084210;27;20338;-68
2022/08/20 07:27:37;;;;;;;11.97;3.93;;;;;;;19.07;100.00;98260.19;5133178;27;20280;-67
2022/08/20 07:33:41;;;;;;;16.23;6.10;;;;;;;19.15;100.00;98266.53;5133420;27;20304;-64
2022/08/20 07:36:38;;;;;;;13.60;4.53;;;;;;;19.16;100.00;98277.97;5132155;27;20287;-65
2022/08/20 07:42:28;;;;;;;8.67;4.80;;;;;;;19.09;100.00;98258.25;5133604;27;20311;-65
2022/08/20 07:48:29;;;;;;;15.00;5.27;;;;;;;19.35;100.00;98286.06;5101431;27;20290;-64
2022/08/20 07:51:21;;;;;;;17.77;5.03;;;;;;;19.36;100.00;98277.13;5132166;27;20301;-65
2022/08/20 07:54:04;;;;;;;16.73;6.37;;;;;;;19.40;100.00;98291.81;5099695;27;20293;-70
2022/08/20 07:56:56;;;;;;;18.03;6.10;;;;;;;19.39;100.00;98284.84;5133753;27;20292;-64
2022/08/20 07:59:55;;;;;;;21.60;6.23;;;;;;;19.28;100.00;98274.28;5132400;27;20277;-66
2022/08/20 08:03:08;;;;;;;16.20;6.70;;;;;;;18.90;100.00;98201.59;5099102;27;20301;-67
2022/08/20 08:05:53;;;;;;;18.03;6.80;;;;;;;19.31;100.00;98278.50;5098975;27;20289;-68
2022/08/20 08:08:33;;;;;;;23.60;6.67;;;;;;;19.35;100.00;98280.75;5132857;27;20289;-64
2022/08/20 08:11:31;;;;;;;17.63;6.27;;;;;;;19.38;100.00;98279.66;5131597;27;20300;-70
2022/08/20 08:14:38;;;;;;;18.63;5.93;;;;;;;19.35;100.00;98275.47;5133809;27;20313;-67
2022/08/20 08:23:24;;;;;;;19.13;6.43;;;;;;;19.50;100.00;98280.44;5132164;27;20073;-62
2022/08/20 08:26:20;;;;;;;21.63;7.03;;;;;;;19.37;100.00;98268.22;5130565;27;20603;-62
2022/08/20 08:29:10;;;;;;;21.13;9.55;;;;;;;19.39;100.00;98261.00;5131152;27;20317;-63
2022/08/20 08:31:55;;;;;;;16.27;6.43;;;;;;;19.55;100.00;98302.06;5131875;27;20106;-61
2022/08/20 08:35:22;;;;;;;19.53;6.80;;;;;;;19.54;100.00;98308.31;5086676;28;20287;-63
2022/08/20 08:38:38;;;;;;;17.63;6.10;;;;;;;19.26;100.00;98270.94;5107429;28;20597;-62
2022/08/20 08:41:34;;;;;;;14.70;6.00;;;;;;;19.50;100.00;98304.28;5078843;28;20291;-62
2022/08/20 08:44:29;;;;;;;15.53;6.10;;;;;;;19.46;100.00;98300.19;5111841;28;20305;-64
2022/08/20 08:47:25;;;;;;;11.50;5.60;;;;;;;19.47;100.00;98301.88;5111228;28;20294;-63
2022/08/20 08:50:10;;;;;;;15.87;6.17;;;;;;;19.45;100.00;98301.19;5111225;28;21224;-65
2022/08/20 08:53:25;;;;;;;18.53;5.50;;;;;;;19.43;100.00;98305.75;5090009;28;20282;-62
2022/08/20 08:59:00;;;;;;;19.67;6.40;;;;;;;19.39;100.00;98316.63;5110277;28;20277;-65
2022/08/20 09:01:45;;;;;;;18.50;5.50;;;;;;;19.21;100.00;98296.94;5110818;28;20342;-64
2022/08/20 09:04:36;;;;;;;14.63;6.10;;;;;;;19.00;100.00;98274.94;5112400;28;20335;-62
2022/08/20 09:07:24;;;;;;;12.67;5.23;;;;;;;19.28;100.00;98321.97;5110559;28;20305;-63
2022/08/20 09:10:23;;;;;;;16.00;5.47;;;;;;;19.25;100.00;98327.50;5084963;28;20294;-63
2022/08/20 09:13:18;;;;;;;15.20;5.43;;;;;;;19.10;100.00;98312.91;5092425;28;20637;-62
2022/08/20 09:16:13;;;;;;;15.67;5.07;;;;;;;19.16;100.00;98338.84;5109192;28;20277;-63
2022/08/20 09:19:13;;;;;;;13.60;5.53;;;;;;;19.16;100.00;98338.84;5084045;28;20322;-61
2022/08/20 09:22:10;;;;;;;15.60;5.33;;;;;;;19.07;100.00;98329.88;5110149;28;20301;-62
2022/08/20 09:25:11;;;;;;;13.90;5.33;;;;;;;18.90;100.00;98328.59;5088563;28;20293;-63
2022/08/20 09:27:54;;;;;;;14.77;5.33;;;;;;;19.04;100.00;98350.44;5111244;28;20567;-64
2022/08/20 09:30:49;;;;;;;12.90;5.07;;;;;;;19.03;100.00;98348.78;5087831;28;20282;-65
2022/08/20 09:33:31;;;;;;;15.53;4.87;;;;;;;18.76;100.00;98310.34;5117747;27;20295;-64
2022/08/20 09:36:12;;;;;;;16.83;5.77;;;;;;;18.94;100.00;98345.88;5132335;27;20500;-63
2022/08/20 09:39:03;;;;;;;22.10;6.43;;;;;;;18.85;100.00;98346.66;5094583;28;20538;-64
2022/08/20 09:41:55;;;;;;;12.83;5.80;;;;;;;18.89;100.00;98348.06;5131473;28;20295;-64
2022/08/20 09:44:35;;;;;;;16.17;6.00;;;;;;;18.84;100.00;98350.25;5132475;28;20312;-63
2022/08/20 09:47:37;;;;;;;15.13;5.10;;;;;;;18.87;100.00;98368.56;5087334;28;20327;-60
2022/08/20 09:50:44;;;;;;;11.13;4.93;;;;;;;18.81;100.00;98366.38;5104215;28;20480;-64
2022/08/20 09:53:30;;;;;;;8.97;4.67;;;;;;;18.80;100.00;98370.00;5129446;28;20379;-62
2022/08/20 10:02:34;;;;;;;17.47;5.30;;;;;;;18.78;100.00;98377.22;5126379;28;20297;-64
2022/08/20 10:05:22;;;;;;;15.30;5.63;;;;;;;18.78;100.00;98389.63;5129151;28;20342;-61
2022/08/20 10:08:05;;;;;;;14.37;5.40;;;;;;;18.65;100.00;98371.22;5130062;28;20319;-65
2022/08/20 10:10:47;;;;;;;12.80;5.20;;;;;;;18.72;100.00;98377.66;5129081;28;20277;-63
2022/08/20 10:16:17;;;;;;;14.27;4.50;;;;;;;18.71;100.00;98397.16;5130293;28;20342;-63
2022/08/20 10:22:33;;;;;;;12.47;4.30;;;;;;;18.72;100.00;98409.41;5114280;28;20333;-60
2022/08/20 10:25:24;;;;;;;12.50;7.27;;;;;;;18.68;100.00;98408.81;5128742;28;20328;-61
2022/08/20 10:28:08;;;;;;;16.83;6.43;;;;;;;18.70;100.00;98406.06;5088161;28;21048;-61
2022/08/20 10:30:48;;;;;;;18.00;7.80;;;;;;;18.68;100.00;98410.63;5105623;28;20288;-62
2022/08/20 10:33:43;;;;;;;23.63;8.00;;;;;;;18.65;100.00;98408.25;5088887;28;20315;-63
2022/08/20 10:36:24;;;;;;;10.90;5.80;;;;;;;18.61;100.00;98407.63;5054109;28;20284;-63
2022/08/20 10:39:11;;;;;;;10.87;5.20;;;;;;;18.67;100.00;98419.50;5091309;28;20289;-62
2022/08/20 10:41:51;;;;;;;13.90;5.83;;;;;;;18.65;100.00;98413.53;5128881;28;20293;-64
2022/08/20 10:44:27;;;;;;;10.40;4.80;;;;;;;18.60;100.00;98415.69;5129742;28;20376;-61
2022/08/20 10:47:20;;;;;;;14.07;4.33;;;;;;;18.51;100.00;98410.16;5130361;28;20360;-63
2022/08/20 10:57:11;;;;;;;12.83;4.47;;;;;;;18.35;100.00;98412.31;5121852;27;20413;-64
2022/08/20 11:00:12;;;;;;;16.02;6.65;;;;;;;18.18;100.00;98396.94;5132682;27;20831;-62
2022/08/20 11:03:01;;;;;;;13.83;7.47;;;;;;;18.16;100.00;98401.50;5135157;27;20058;-62
2022/08/20 11:05:48;;;;;;;18.67;7.27;;;;;;;18.11;100.00;98405.31;5134383;27;20392;-61
2022/08/20 11:08:24;;;;;;;13.37;6.50;;;;;;;18.07;100.00;98403.03;5133758;27;20333;-61
2022/08/20 11:11:18;;;;;;;10.67;4.93;;;;;;;18.01;100.00;98409.63;5132551;27;20545;-63
2022/08/20 11:14:09;;;;;;;18.27;4.68;;;;;;;17.96;100.00;98411.78;5133238;27;20446;-62
2022/08/20 11:16:58;;;;;;;12.73;4.00;;;;;;;17.87;100.00;98407.19;5082094;27;20140;-62
2022/08/20 11:19:44;;;;;;;10.37;4.10;;;;;;;17.82;100.00;98409.34;5133204;27;20633;-64
2022/08/20 11:22:43;;;;;;;12.43;3.63;;;;;;;17.74;100.00;98403.78;5134675;27;20300;-60
2022/08/20 11:25:39;;;;;;;15.93;3.20;;;;;;;17.64;100.00;98407.09;5133055;27;20062;-61
2022/08/20 11:28:55;;;;;;;12.47;2.87;;;;;;;17.49;100.00;98412.69;5133813;27;20304;-63
2022/08/20 11:31:38;;;;;;;11.67;2.93;;;;;;;17.44;100.00;98420.94;5098264;27;20286;-65
2022/08/20 11:34:22;;;;;;;13.57;3.10;;;;;;;17.39;100.00;98433.66;5134003;27;20313;-65
2022/08/20 11:37:09;;;;;;;9.13;3.20;;;;;;;17.38;100.00;98431.97;5134407;27;20362;-64
2022/08/20 11:40:00;;;;;;;8.53;2.93;;;;;;;17.12;100.00;98400.38;5134638;27;20047;-70
2022/08/20 11:42:35;;;;;;;9.80;3.70;;;;;;;17.28;100.00;98441.53;5132964;27;20298;-67
2022/08/20 11:45:36;;;;;;;14.80;3.30;;;;;;;17.29;100.00;98445.84;5133615;27;20293;-65
2022/08/20 11:48:27;;;;;;;8.30;3.53;;;;;;;17.30;100.00;98444.88;5132984;27;20299;-65
2022/08/20 11:51:09;;;;;;;8.33;3.80;;;;;;;17.29;100.00;98443.19;5131911;27;20407;-67
2022/08/20 11:53:50;;;;;;;10.93;3.30;;;;;;;17.27;100.00;98445.09;5131883;27;20810;-68
2022/08/20 11:56:29;;;;;;;12.33;4.33;;;;;;;17.27;100.00;98439.81;5080022;27;20332;-64
2022/08/20 11:59:21;;;;;;;14.93;4.17;;;;;;;17.30;100.00;98434.31;5103905;27;20347;-63
2022/08/20 12:01:57;;;;;;;7.97;3.55;;;;;;;17.25;100.00;98438.16;5132916;27;20782;-62
2022/08/20 12:04:54;;;;;;;11.23;4.53;;;;;;;17.20;100.00;98435.00;5133465;27;20059;-67
2022/08/20 12:07:49;;;;;;;11.40;3.80;;;;;;;17.22;100.00;98456.84;5062069;27;20274;-65
2022/08/20 12:10:35;;;;;;;9.17;3.43;;;;;;;17.22;100.00;98462.13;5132832;27;20490;-64
2022/08/20 12:13:22;;;;;;;13.57;4.90;;;;;;;17.18;100.00;98462.47;5130484;27;20273;-64
2022/08/20 12:16:24;;;;;;;8.73;4.23;;;;;;;17.05;100.00;98473.06;5132930;27;20273;-64
2022/08/20 12:19:16;;;;;;;11.35;5.75;;;;;;;16.93;100.00;98463.38;5115935;27;20285;-65
2022/08/20 12:27:58;;;;;;;34.03;15.43;;;;;;;16.75;100.00;98465.50;5132653;27;20289;-66
2022/08/20 12:30:34;;;;;;;32.70;15.73;;;;;;;16.70;100.00;98463.19;5132724;27;20289;-64
2022/08/20 12:33:20;;;;;;;36.93;16.80;;;;;;;16.63;100.00;98461.06;5132220;27;20788;-66
2022/08/20 12:36:12;;;;;;;38.63;18.70;;;;;;;16.62;100.00;98454.94;5132738;27;20391;-63
2022/08/20 12:39:01;;;;;;;17.70;6.13;;;;;;;16.65;100.00;98456.50;5097875;27;20285;-67
2022/08/20 12:41:46;;;;;;;8.57;3.40;;;;;;;16.67;100.00;98452.81;5132524;27;20055;-64
2022/08/20 12:44:27;;;;;;;11.00;3.57;;;;;;;16.58;100.00;98421.84;5092035;27;20297;-64
2022/08/20 12:47:25;;;;;;;15.27;3.80;;;;;;;16.56;100.00;98423.75;5131911;27;20285;-69
2022/08/20 12:50:30;;;;;;;13.33;3.30;;;;;;;16.83;100.00;98446.53;5131947;27;20272;-67
2022/08/20 12:53:09;;;;;;;13.67;4.50;;;;;;;16.88;100.00;98439.97;5130863;27;20344;-68
2022/08/20 12:56:07;;;;;;;8.73;3.20;;;;;;;17.00;100.00;98438.25;5131189;27;20293;-62
2022/08/20 12:58:57;;;;;;;16.85;3.90;;;;;;;17.08;100.00;98440.31;5130925;27;20338;-65
2022/08/20 13:02:00;;;;;;;14.25;3.13;;;;;;;17.21;100.00;98446.41;5097741;27;20057;-65
2022/08/20 13:04:52;;;;;;;16.83;3.30;;;;;;;17.10;100.00;98423.44;5079289;27;20051;-65
2022/08/20 13:07:56;;;;;;;9.90;2.30;;;;;;;17.41;100.00;98455.50;5128718;27;20287;-63
2022/08/20 13:10:44;;;;;;;5.80;1.93;;;;;;;17.50;100.00;98457.47;5132489;27;20292;-65
2022/08/20 13:13:36;;;;;;;9.43;2.50;;;;;;;17.57;100.00;98463.13;5131030;27;20348;-62
2022/08/20 13:25:28;;;;;;;8.97;2.80;;;;;;;17.63;100.00;98458.25;4991508;28;20304;-65
2022/08/20 13:28:27;;;;;;;9.30;1.95;;;;;;;17.65;100.00;98448.41;5013354;28;20303;-64
2022/08/20 13:31:18;;;;;;;7.37;1.80;;;;;;;17.65;100.00;98450.22;5041906;28;20140;-66
2022/08/20 13:33:59;;;;;;;4.80;2.10;;;;;;;17.63;100.00;98458.25;5024482;28;20348;-64
2022/08/20 13:36:42;;;;;;;10.73;2.20;;;;;;;17.53;100.00;98451.13;5014073;28;20296;-67
2022/08/20 13:39:27;;;;;;;9.32;1.85;;;;;;;17.61;100.00;98460.16;5045587;28;20291;-66
2022/08/20 13:42:10;;;;;;;7.23;2.07;;;;;;;17.56;100.00;98451.72;5041685;28;20069;-68
2022/08/20 13:44:57;;;;;;;7.30;1.80;;;;;;;17.62;100.00;98453.06;5041229;28;20317;-67
2022/08/20 13:47:52;;;;;;;6.87;1.70;;;;;;;17.61;100.00;98457.50;4999111;28;20312;-65
2022/08/20 13:50:44;;;;;;;5.55;1.70;;;;;;;17.62;100.00;98472.41;5041429;28;20319;-65
2022/08/20 13:53:28;;;;;;;8.03;1.67;;;;;;;17.59;100.00;98472.63;5041412;28;20096;-62
2022/08/20 13:56:16;;;;;;;12.47;1.80;;;;;;;17.62;100.00;98476.84;5008871;28;20283;-63
2022/08/20 13:58:51;;;;;;;12.77;1.73;;;;;;;17.61;100.00;98476.00;5047792;28;20834;-64
2022/08/20 14:01:49;;;;;;;9.63;1.80;;;;;;;17.61;100.00;98486.56;5087306;28;20335;-64
2022/08/20 14:04:39;;;;;;;13.47;2.10;;;;;;;17.61;100.00;98485.72;5102442;28;20305;-65
2022/08/20 14:07:34;;;;;;;10.57;1.80;;;;;;;17.56;100.00;98488.69;5103594;28;20282;-66
2022/08/20 14:10:21;;;;;;;6.50;1.20;;;;;;;17.54;100.00;98479.19;5102175;28;20290;-67
2022/08/20 14:13:06;;;;;;;12.27;1.57;;;;;;;17.54;100.00;98493.25;5068177;28;20332;-66
2022/08/20 14:15:54;;;;;;;8.93;1.50;;;;;;;17.55;100.00;98491.47;5103486;28;20286;-66
2022/08/20 14:18:31;;;;;;;10.10;1.60;;;;;;;17.55;100.00;98497.59;5100165;28;20305;-65
2022/08/20 14:21:18;;;;;;;7.20;1.30;;;;;;;17.53;100.00;98504.78;5103132;28;20286;-66
2022/08/20 14:24:14;;;;;;;10.07;1.70;;;;;;;17.45;100.00;98502.69;5075425;28;20294;-66
2022/08/20 14:27:01;;;;;;;7.05;1.55;;;;;;;17.46;100.00;98508.81;5103245;28;20314;-66
2022/08/20 14:30:10;;;;;;;10.27;1.90;;;;;;;17.41;100.00;98508.31;5105785;28;20093;-66
2022/08/20 14:32:58;;;;;;;8.73;1.53;;;;;;;17.40;100.00;98514.56;5105636;28;20290;-66
2022/08/20 14:35:34;;;;;;;11.43;1.40;;;;;;;17.34;100.00;98521.09;5106655;28;20320;-65
2022/08/20 14:38:37;;;;;;;6.63;1.63;;;;;;;17.36;100.00;98507.78;5106659;28;20286;-67
2022/08/20 14:41:29;;;;;;;9.07;1.53;;;;;;;17.35;100.00;98522.78;5107260;28;20055;-65
2022/08/20 14:44:09;;;;;;;10.93;1.97;;;;;;;17.36;100.00;98526.28;5103944;28;20286;-63
2022/08/20 14:47:03;;;;;;;;;;;;;;;17.38;100.00;98532.28;5107089;28;20310;-65
2022/08/20 14:49:36;;;;;;;;;;;;;;;17.34;100.00;98523.72;5107576;28;20219;-67
2022/08/20 14:52:37;;;;;;;;;;;;;;;17.30;100.00;98534.63;5107121;28;19946;-61
2022/08/20 14:55:18;;;;;;;;;;;;;;;17.26;100.00;98536.66;5105500;28;20057;-63
2022/08/20 14:58:02;;;;;;;;;;;;;;;17.23;100.00;98535.06;5106307;28;19984;-62
2022/08/20 15:00:34;;;;;;;;;;;;;;;17.19;100.00;98538.03;5105103;28;19975;-65
2022/08/20 15:03:12;;;;;;;;;;;;;;;17.18;100.00;98534.56;5106299;28;19943;-63
2022/08/20 15:05:47;;;;;;;;;;;;;;;17.15;100.00;98526.88;5106731;28;19942;-65
2022/08/20 15:08:25;;;;;;;;;;;;;;;17.11;100.00;98530.66;5071805;28;19924;-63
2022/08/20 15:11:11;;;;;;;;;;;;;;;17.07;100.00;98523.91;5071902;28;19983;-62
2022/08/20 15:13:43;;;;;;;;;;;;;;;17.08;100.00;98525.59;5106065;28;19948;-64
2022/08/20 15:16:19;;;;;;;;;;;;;;;17.09;100.00;98531.72;5106940;28;19965;-64